Time;durP1;ratioP1;P1;durP2;ratioP2;P2;SDS_P1;SDS_P2;PMS_P1;PMS_P2;Temp;Humidity;BMP_temperature;BMP_pressure;BME280_temperature;BME280_humidity;BME280_pressure;Samples;Min_cycle;Max_cycle;Signal;HPM_P1;HPM_P2
2023/09/05 00:02:34;;;;;;;1999.90;999.90;;;;;;;16.98;100.00;101970.00;10546136;28;20051;-67
2023/09/05 00:07:37;;;;;;;1999.90;999.90;;;;;;;16.96;100.00;101964.81;10546324;28;20135;-67
2023/09/05 00:12:43;;;;;;;1999.90;999.90;;;;;;;16.89;100.00;101958.25;10545594;28;20150;-66
2023/09/05 00:17:46;;;;;;;1999.90;999.90;;;;;;;16.95;100.00;101962.31;10545381;28;20493;-66
2023/09/05 00:22:48;;;;;;;1999.90;999.90;;;;;;;16.75;100.00;101971.50;10545122;28;20056;-67
2023/09/05 00:27:50;;;;;;;1999.90;999.90;;;;;;;16.57;100.00;101966.44;10546681;28;20058;-66
2023/09/05 00:32:53;;;;;;;1999.90;999.90;;;;;;;16.54;100.00;101966.63;10544816;28;20503;-66
2023/09/05 00:37:57;;;;;;;1999.90;999.90;;;;;;;16.55;100.00;101968.34;10546381;28;20048;-66
2023/09/05 00:43:00;;;;;;;1999.90;999.90;;;;;;;16.53;100.00;101967.59;10546245;28;20051;-66
2023/09/05 00:48:07;;;;;;;1999.90;999.90;;;;;;;16.61;100.00;101969.75;10545440;28;20400;-66
2023/09/05 00:53:09;;;;;;;1999.90;999.90;;;;;;;16.50;100.00;101979.22;10544714;28;20055;-67
2023/09/05 00:58:12;;;;;;;1999.90;999.90;;;;;;;16.45;100.00;101981.28;10544387;28;20079;-66
2023/09/05 01:03:15;;;;;;;1999.90;999.90;;;;;;;16.47;100.00;101994.41;10543098;28;20063;-66
2023/09/05 01:08:26;;;;;;;1999.90;999.90;;;;;;;16.23;100.00;101994.19;10545140;28;20094;-66
2023/09/05 01:13:31;;;;;;;1999.90;999.90;;;;;;;16.26;100.00;102007.19;10544400;28;20123;-66
2023/09/05 01:18:34;;;;;;;1999.90;999.90;;;;;;;16.10;100.00;102002.84;10544113;28;20123;-66
2023/09/05 01:23:55;;;;;;;1999.90;999.90;;;;;;;15.96;100.00;102003.69;10543905;28;20062;-66
2023/09/05 01:28:59;;;;;;;1999.90;999.90;;;;;;;16.08;100.00;102009.19;10544383;28;20080;-66
2023/09/05 01:34:01;;;;;;;1999.90;999.90;;;;;;;15.88;100.00;102005.94;10543045;28;20047;-67
2023/09/05 01:39:03;;;;;;;1999.90;999.90;;;;;;;15.72;100.00;102002.53;10543964;28;20048;-66
2023/09/05 01:44:06;;;;;;;1999.90;999.90;;;;;;;15.81;100.00;101996.72;10543769;28;20131;-67
2023/09/05 01:49:08;;;;;;;1999.90;999.90;;;;;;;15.97;100.00;101996.66;10541606;28;20404;-67
2023/09/05 01:54:11;;;;;;;1999.90;999.90;;;;;;;15.98;100.00;101993.88;10542723;28;20058;-66
2023/09/05 01:59:14;;;;;;;1999.90;999.90;;;;;;;15.85;100.00;101992.09;10543127;28;20050;-67
2023/09/05 02:04:16;;;;;;;1999.90;999.90;;;;;;;15.89;100.00;101988.34;10542329;28;20155;-66
2023/09/05 02:09:18;;;;;;;1999.90;999.90;;;;;;;15.88;100.00;101984.81;10542089;28;20059;-66
2023/09/05 02:14:21;;;;;;;1999.90;999.90;;;;;;;15.89;100.00;101988.34;10542049;28;20070;-66
2023/09/05 02:19:26;;;;;;;1999.90;999.90;;;;;;;15.89;100.00;101975.13;10541492;28;20082;-66
2023/09/05 02:24:29;;;;;;;1999.90;999.90;;;;;;;15.89;100.00;101968.06;10542225;28;20048;-66
2023/09/05 02:29:32;;;;;;;1999.90;999.90;;;;;;;15.86;100.00;101972.69;10541255;28;20420;-66
2023/09/05 02:34:34;;;;;;;1999.90;999.90;;;;;;;15.94;100.00;101962.50;10540683;28;20048;-66
2023/09/05 02:39:36;;;;;;;1999.90;999.90;;;;;;;15.74;100.00;101972.44;10541556;28;20065;-66
2023/09/05 02:44:39;;;;;;;1999.90;999.90;;;;;;;15.77;100.00;101977.56;10541396;28;20048;-66
2023/09/05 02:49:41;;;;;;;1999.90;999.90;;;;;;;15.61;100.00;101974.13;10539399;28;20481;-66
2023/09/05 02:54:44;;;;;;;1999.90;999.90;;;;;;;15.44;100.00;101972.47;10541228;28;20044;-66
2023/09/05 02:59:46;;;;;;;1999.90;999.90;;;;;;;15.44;100.00;101966.38;10540945;28;20054;-66
2023/09/05 03:04:51;;;;;;;1999.90;999.90;;;;;;;15.44;100.00;101964.56;10539971;28;20063;-66
2023/09/05 03:09:53;;;;;;;1999.90;999.90;;;;;;;15.29;100.00;101973.41;10540652;28;20074;-66
2023/09/05 03:14:56;;;;;;;1999.90;999.90;;;;;;;15.28;100.00;101964.63;10540662;28;20051;-68
2023/09/05 03:19:58;;;;;;;1999.90;999.90;;;;;;;15.19;100.00;101967.81;10540302;28;20052;-66
2023/09/05 03:25:00;;;;;;;1999.90;999.90;;;;;;;15.04;100.00;101965.09;10540176;28;20122;-66
2023/09/05 03:30:03;;;;;;;1999.90;999.90;;;;;;;15.07;100.00;101956.19;10539784;28;20044;-66
2023/09/05 03:35:05;;;;;;;1999.90;999.90;;;;;;;14.98;100.00;101957.56;10538809;28;20052;-66
2023/09/05 03:40:10;;;;;;;1999.90;999.90;;;;;;;15.08;100.00;101962.28;10539897;28;20054;-66
2023/09/05 03:45:12;;;;;;;1999.90;999.90;;;;;;;14.85;100.00;101957.41;10539774;28;20122;-66
2023/09/05 03:50:17;;;;;;;1999.90;999.90;;;;;;;14.90;100.00;101951.88;10539645;28;20123;-66
2023/09/05 03:55:20;;;;;;;1999.90;999.90;;;;;;;14.89;100.00;101958.06;10538442;28;20051;-66
2023/09/05 04:00:23;;;;;;;1999.90;999.90;;;;;;;15.04;100.00;101940.53;10539175;28;20048;-66
2023/09/05 04:05:25;;;;;;;1999.90;999.90;;;;;;;15.07;100.00;101942.16;10538837;28;20422;-66
2023/09/05 04:10:27;;;;;;;1999.90;999.90;;;;;;;14.98;100.00;101946.19;10538113;28;20055;-66
2023/09/05 04:15:30;;;;;;;1999.90;999.90;;;;;;;15.24;100.00;101945.47;10538614;28;20059;-66
2023/09/05 04:20:34;;;;;;;1999.90;999.90;;;;;;;15.12;100.00;101940.94;10538593;28;20055;-66
2023/09/05 04:25:39;;;;;;;1999.90;999.90;;;;;;;15.01;100.00;101938.06;10538490;28;20500;-66
2023/09/05 04:30:42;;;;;;;1999.90;999.90;;;;;;;15.10;100.00;101947.25;10539065;28;20089;-66
2023/09/05 04:35:44;;;;;;;1999.90;999.90;;;;;;;15.24;100.00;101940.19;10537125;28;20075;-66
2023/09/05 04:40:47;;;;;;;1999.90;999.90;;;;;;;15.29;100.00;101934.66;10542409;28;20048;-66
2023/09/05 04:45:54;;;;;;;1999.90;999.90;;;;;;;15.41;100.00;101933.91;10546164;28;20123;-66
2023/09/05 04:50:58;;;;;;;1999.90;999.90;;;;;;;15.47;100.00;101931.88;10545933;28;20052;-66
2023/09/05 04:56:01;;;;;;;1999.90;999.90;;;;;;;15.49;100.00;101927.34;10545137;28;20051;-66
2023/09/05 05:01:04;;;;;;;1999.90;999.90;;;;;;;15.57;100.00;101938.31;10545289;28;20082;-66
2023/09/05 05:06:07;;;;;;;1999.90;999.90;;;;;;;15.54;100.00;101930.56;10544781;28;20523;-66
2023/09/05 05:11:09;;;;;;;1999.90;999.90;;;;;;;15.40;100.00;101929.59;10544404;28;20044;-66
2023/09/05 05:16:11;;;;;;;1999.90;999.90;;;;;;;15.52;100.00;101935.94;10544985;28;20059;-66
2023/09/05 05:21:14;;;;;;;1999.90;999.90;;;;;;;15.38;100.00;101933.25;10544773;28;20097;-66
2023/09/05 05:26:16;;;;;;;1999.90;999.90;;;;;;;15.24;100.00;101927.00;10543842;28;20528;-66
2023/09/05 05:31:18;;;;;;;1999.90;999.90;;;;;;;15.25;100.00;101933.16;10544385;28;20043;-67
2023/09/05 05:36:21;;;;;;;1999.90;999.90;;;;;;;15.20;100.00;101943.97;10543264;28;20451;-66
2023/09/05 05:41:24;;;;;;;1999.90;999.90;;;;;;;15.34;100.00;101943.16;10543496;28;20503;-66
2023/09/05 05:46:26;;;;;;;1999.90;999.90;;;;;;;15.24;100.00;101939.34;10543650;28;20064;-66
2023/09/05 05:51:30;;;;;;;1999.90;999.90;;;;;;;15.39;100.00;101948.16;10543348;28;20051;-67
2023/09/05 05:56:32;;;;;;;1999.90;999.90;;;;;;;15.60;100.00;101946.88;10524924;28;20501;-66
2023/09/05 06:01:35;;;;;;;1999.90;999.90;;;;;;;15.47;100.00;101955.63;10542652;28;20052;-67
2023/09/05 06:06:38;;;;;;;1999.90;999.90;;;;;;;15.67;100.00;101950.00;10542889;28;20079;-68
2023/09/05 06:11:40;;;;;;;1999.90;999.90;;;;;;;15.96;100.00;101942.94;10540837;28;20396;-68
2023/09/05 06:16:46;;;;;;;1999.90;999.90;;;;;;;16.06;100.00;101939.75;10540818;28;20103;-68
2023/09/05 06:21:49;;;;;;;1999.90;999.90;;;;;;;16.04;100.00;101946.91;10541376;28;20044;-68
2023/09/05 06:26:51;;;;;;;1999.90;999.90;;;;;;;16.21;100.00;101938.78;10541562;28;20108;-68
2023/09/05 06:31:53;;;;;;;1999.90;999.90;;;;;;;16.28;100.00;101929.50;10542080;28;20044;-68
2023/09/05 06:36:56;;;;;;;1999.90;999.90;;;;;;;16.26;100.00;101928.78;10541811;28;20051;-68
2023/09/05 06:41:59;;;;;;;1999.90;999.90;;;;;;;16.65;100.00;101921.84;10540875;28;20485;-68
2023/09/05 06:47:01;;;;;;;1999.90;999.90;;;;;;;16.83;100.00;101919.81;10540743;28;20069;-68
2023/09/05 06:52:04;;;;;;;1999.90;999.90;;;;;;;17.04;100.00;101922.00;10541260;28;20123;-68
2023/09/05 06:57:08;;;;;;;1999.90;999.90;;;;;;;17.14;100.00;101922.22;10540585;28;20139;-68
2023/09/05 07:02:10;;;;;;;1999.90;999.90;;;;;;;17.29;100.00;101917.72;10539811;28;20080;-68
2023/09/05 07:07:13;;;;;;;1999.90;999.90;;;;;;;17.52;100.00;101922.28;10540716;28;20052;-68
2023/09/05 07:12:15;;;;;;;1999.90;999.90;;;;;;;17.72;100.00;101918.25;10539825;28;20044;-68
2023/09/05 07:17:17;;;;;;;1999.90;999.90;;;;;;;17.97;100.00;101920.03;10533768;22;20072;-72
2023/09/05 07:22:21;;;;;;;1999.90;999.90;;;;;;;18.44;100.00;101914.06;10464448;28;20040;-72
2023/09/05 07:27:23;;;;;;;1999.90;999.90;;;;;;;19.06;96.54;101902.41;10497734;28;20158;-72
2023/09/05 07:32:26;;;;;;;1999.90;999.90;;;;;;;19.77;88.43;101896.97;10480616;28;20072;-72
2023/09/05 07:37:28;;;;;;;1999.90;999.90;;;;;;;20.27;84.26;101891.22;10498149;28;20052;-73
2023/09/05 07:42:31;;;;;;;1999.90;999.90;;;;;;;20.80;81.33;101883.31;10480315;28;20086;-72
2023/09/05 07:47:33;;;;;;;1999.90;999.90;;;;;;;21.17;78.09;101887.34;10463089;28;20054;-72
2023/09/05 07:52:36;;;;;;;1999.90;999.90;;;;;;;21.63;77.83;101880.75;10480102;28;20049;-72
2023/09/05 07:57:38;;;;;;;1999.90;999.90;;;;;;;22.26;76.64;101870.66;10497775;28;20072;-73
2023/09/05 08:02:41;;;;;;;1999.90;999.90;;;;;;;22.37;71.47;101868.88;10497017;28;20053;-72
2023/09/05 08:07:44;;;;;;;1999.90;999.90;;;;;;;22.62;70.39;101867.47;10463240;28;20072;-73
2023/09/05 08:12:46;;;;;;;1999.90;999.90;;;;;;;23.44;69.72;101876.75;10479176;28;20055;-73
2023/09/05 08:17:48;;;;;;;1999.90;999.90;;;;;;;23.50;65.80;101877.97;10504425;28;20052;-73
2023/09/05 08:22:51;;;;;;;1999.90;999.90;;;;;;;23.24;65.26;101881.31;10504393;28;20537;-73
2023/09/05 08:27:53;;;;;;;1999.90;999.90;;;;;;;23.51;63.34;101882.34;10487078;28;20132;-73
2023/09/05 08:32:57;;;;;;;1999.90;999.90;;;;;;;24.20;63.83;101888.22;10487056;28;20072;-73
2023/09/05 08:38:04;;;;;;;1999.90;999.90;;;;;;;24.64;64.73;101885.63;10503839;28;20489;-73
2023/09/05 08:43:06;;;;;;;1999.90;999.90;;;;;;;24.65;63.58;101874.78;10470798;28;20072;-73
2023/09/05 08:48:09;;;;;;;1999.90;999.90;;;;;;;25.10;62.37;101880.13;10503487;28;20508;-73
2023/09/05 08:53:15;;;;;;;1999.90;999.90;;;;;;;25.45;61.73;101883.69;10485515;28;20477;-73
2023/09/05 08:58:18;;;;;;;1999.90;999.90;;;;;;;25.12;60.00;101892.38;10503767;28;20109;-73
2023/09/05 09:03:20;;;;;;;1999.90;999.90;;;;;;;25.73;59.22;101878.97;10485772;28;20048;-73
2023/09/05 09:08:23;;;;;;;1999.90;999.90;;;;;;;26.44;58.18;101871.44;10502784;28;20131;-73
2023/09/05 09:13:27;;;;;;;1999.90;999.90;;;;;;;26.22;56.52;101875.63;10484862;28;20564;-73
2023/09/05 09:18:32;;;;;;;1999.90;999.90;;;;;;;25.36;58.77;101880.97;10484819;28;20055;-73
2023/09/05 09:23:35;;;;;;;1999.90;999.90;;;;;;;26.60;56.12;101863.41;10484576;28;20489;-73
2023/09/05 09:28:38;;;;;;;1999.90;999.90;;;;;;;26.92;55.33;101860.91;10485051;28;20106;-73
2023/09/05 09:33:41;;;;;;;1999.90;999.90;;;;;;;27.98;54.77;101862.41;10483963;28;20405;-73
2023/09/05 09:38:44;;;;;;;1999.90;999.90;;;;;;;27.56;54.32;101845.59;10502279;28;20053;-73
2023/09/05 09:43:55;;;;;;;1999.90;999.90;;;;;;;27.66;51.54;101853.47;10502011;28;20053;-73
2023/09/05 09:48:58;;;;;;;1999.90;999.90;;;;;;;28.47;52.66;101848.56;10483587;28;20482;-73
2023/09/05 09:54:01;;;;;;;1999.90;999.90;;;;;;;28.38;52.32;101855.06;10483874;28;20045;-73
2023/09/05 09:59:04;;;;;;;1999.90;999.90;;;;;;;30.00;50.29;101844.53;10483564;28;20054;-73
2023/09/05 10:04:06;;;;;;;1999.90;999.90;;;;;;;30.96;49.42;101835.19;10466228;28;20401;-73
2023/09/05 10:09:09;;;;;;;1999.90;999.90;;;;;;;30.90;49.19;101847.59;10482535;28;20485;-73
2023/09/05 10:14:12;;;;;;;1999.90;999.90;;;;;;;30.64;45.47;101839.31;10483035;28;20080;-73
2023/09/05 10:19:16;;;;;;;1999.90;999.90;;;;;;;30.58;47.89;101849.06;10465745;28;20409;-73
2023/09/05 10:24:19;;;;;;;1999.90;999.90;;;;;;;31.46;47.46;101846.69;10482129;28;20509;-73
2023/09/05 10:29:47;;;;;;;1999.90;999.90;;;;;;;32.79;46.23;101848.00;10482280;28;20048;-73
2023/09/05 10:34:58;;;;;;;1999.90;999.90;;;;;;;32.93;44.93;101837.94;10469478;28;20048;-73
2023/09/05 10:40:08;;;;;;;1999.90;999.90;;;;;;;31.42;43.14;101848.13;10499131;28;20053;-73
2023/09/05 10:45:23;;;;;;;;;;;;;;;31.35;41.94;101847.25;10482325;28;20059;-73
2023/09/05 10:50:25;;;;;;;1999.90;999.90;;;;;;;33.11;41.93;101838.13;10499293;28;19920;-73
2023/09/05 10:55:29;;;;;;;1999.90;999.90;;;;;;;32.81;43.12;101835.06;10480852;28;20048;-74
2023/09/05 11:00:38;;;;;;;1999.90;999.90;;;;;;;32.65;40.88;101840.91;10499050;28;20044;-74
2023/09/05 11:05:41;;;;;;;1999.90;999.90;;;;;;;34.38;42.85;101837.50;10498420;28;20052;-73
2023/09/05 11:10:44;;;;;;;1999.90;999.90;;;;;;;33.62;39.31;101839.19;10498695;28;20083;-74
2023/09/05 11:15:47;;;;;;;1999.90;999.90;;;;;;;33.65;41.72;101837.94;10498216;28;20058;-74
2023/09/05 11:20:50;;;;;;;1999.90;999.90;;;;;;;33.71;41.30;101834.38;10498540;28;20047;-72
2023/09/05 11:25:54;;;;;;;1999.90;999.90;;;;;;;32.91;39.99;101829.19;10497699;28;20532;-72
2023/09/05 11:31:02;;;;;;;1999.90;999.90;;;;;;;33.01;40.39;101818.75;10464183;28;20047;-72
2023/09/05 11:36:06;;;;;;;;;;;;;;;33.61;42.44;101820.41;10481818;28;20052;-72
2023/09/05 11:41:09;;;;;;;1999.90;999.90;;;;;;;33.53;41.04;101807.09;10480149;28;19920;-73
2023/09/05 11:46:11;;;;;;;1999.90;999.90;;;;;;;33.79;40.77;101804.25;10479978;28;20048;-72
2023/09/05 11:51:14;;;;;;;1999.90;999.90;;;;;;;33.65;38.63;101810.78;10505534;28;20044;-72
2023/09/05 11:56:17;;;;;;;1999.90;999.90;;;;;;;32.99;40.85;101806.47;10471502;28;20497;-72
2023/09/05 12:01:29;;;;;;;1999.90;999.90;;;;;;;33.26;38.74;101799.06;10488470;28;20052;-72
2023/09/05 12:06:35;;;;;;;1999.90;999.90;;;;;;;34.60;40.41;101804.47;10487502;28;20489;-72
2023/09/05 12:11:38;;;;;;;1999.90;999.90;;;;;;;33.78;40.29;101793.63;10505494;28;20094;-72
2023/09/05 12:16:46;;;;;;;1999.90;999.90;;;;;;;34.63;38.99;101786.84;10505040;28;20071;-72
2023/09/05 12:21:49;;;;;;;1999.90;999.90;;;;;;;33.22;39.34;101793.25;10504574;28;20476;-72
2023/09/05 12:26:59;;;;;;;1999.90;999.90;;;;;;;33.60;40.82;101775.31;10504329;28;20087;-73
2023/09/05 12:32:02;;;;;;;1999.90;999.90;;;;;;;33.40;39.31;101778.13;10471614;28;20040;-73
2023/09/05 12:37:04;;;;;;;1999.90;999.90;;;;;;;32.58;38.47;101773.13;10503987;28;20048;-73
2023/09/05 12:42:09;;;;;;;1999.90;999.90;;;;;;;34.16;39.61;101758.22;10469483;28;20111;-73
2023/09/05 12:47:12;;;;;;;1999.90;999.90;;;;;;;33.53;39.51;101759.06;10503527;28;20484;-73
2023/09/05 12:52:14;;;;;;;1999.90;999.90;;;;;;;32.93;39.69;101765.59;10503877;28;20044;-73
2023/09/05 12:57:17;;;;;;;1999.90;999.90;;;;;;;33.28;39.48;101765.22;10486133;28;20144;-73
2023/09/05 13:02:20;;;;;;;1999.90;999.90;;;;;;;34.20;38.83;101754.00;10485205;28;20124;-73
2023/09/05 13:07:23;;;;;;;1999.90;999.90;;;;;;;33.99;37.88;101760.63;10485066;28;20048;-73
2023/09/05 13:12:25;;;;;;;1999.90;999.90;;;;;;;33.59;40.20;101739.19;10502600;28;20040;-73
2023/09/05 13:17:28;;;;;;;1999.90;999.90;;;;;;;33.98;39.23;101731.81;10502637;28;20513;-73
2023/09/05 13:22:30;;;;;;;1999.90;999.90;;;;;;;33.26;38.16;101733.97;10502867;28;20048;-73
2023/09/05 13:27:33;;;;;;;1999.90;999.90;;;;;;;34.37;40.16;101731.69;10484422;28;20466;-73
2023/09/05 13:32:35;;;;;;;1999.90;999.90;;;;;;;33.52;38.52;101724.81;10483995;28;20127;-73
2023/09/05 13:37:37;;;;;;;1999.90;999.90;;;;;;;34.36;38.29;101719.16;10502261;28;20080;-73
2023/09/05 13:42:40;;;;;;;1999.90;999.90;;;;;;;33.74;38.16;101719.88;10484343;28;20045;-73
2023/09/05 13:47:42;;;;;;;1999.90;999.90;;;;;;;34.40;38.53;101710.34;10501278;28;20576;-73
2023/09/05 13:52:45;;;;;;;1999.90;999.90;;;;;;;34.02;36.03;101721.34;10501012;28;20408;-73
2023/09/05 13:57:49;;;;;;;1999.90;999.90;;;;;;;34.32;40.17;101707.91;10501430;28;20084;-73
2023/09/05 14:02:52;;;;;;;1999.90;999.90;;;;;;;33.57;39.24;101710.59;10501250;28;20110;-73
2023/09/05 14:07:55;;;;;;;1999.90;999.90;;;;;;;35.09;38.32;101715.59;10501031;28;20078;-73
2023/09/05 14:12:57;;;;;;;1999.90;999.90;;;;;;;34.66;39.03;101718.44;10499634;28;20060;-73
2023/09/05 14:18:00;;;;;;;1999.90;999.90;;;;;;;34.29;38.25;101721.94;10499733;28;20063;-73
2023/09/05 14:23:02;;;;;;;1999.90;999.90;;;;;;;35.88;36.49;101706.53;10500348;28;20040;-73
2023/09/05 14:28:05;;;;;;;1999.90;999.90;;;;;;;35.49;38.44;101698.75;10499541;28;20044;-72
2023/09/05 14:33:09;;;;;;;1999.90;999.90;;;;;;;35.10;38.53;101705.53;10499841;28;20057;-73
2023/09/05 14:38:11;;;;;;;1999.90;999.90;;;;;;;35.02;39.10;101701.28;10481656;28;20059;-73
2023/09/05 14:43:15;;;;;;;1999.90;999.90;;;;;;;34.45;40.03;101693.34;10499591;28;20048;-73
2023/09/05 14:48:18;;;;;;;1999.90;999.90;;;;;;;34.60;38.14;101693.00;10498861;28;20564;-73
2023/09/05 14:53:21;;;;;;;1999.90;999.90;;;;;;;34.39;40.49;101695.06;10498575;28;20512;-72
2023/09/05 14:58:23;;;;;;;1999.90;999.90;;;;;;;35.22;39.35;101695.59;10481454;28;20049;-72
2023/09/05 15:03:26;;;;;;;1999.90;999.90;;;;;;;33.79;40.93;101698.34;10499017;28;20044;-72
2023/09/05 15:08:29;;;;;;;1999.90;999.90;;;;;;;34.08;39.96;101693.28;10498233;28;20525;-73
2023/09/05 15:13:32;;;;;;;1999.90;999.90;;;;;;;34.08;39.80;101690.56;10498657;28;20048;-73
2023/09/05 15:18:36;;;;;;;1999.90;999.90;;;;;;;33.65;39.40;101675.84;10480340;28;20060;-72
2023/09/05 15:23:39;;;;;;;1999.90;999.90;;;;;;;33.60;43.61;101678.41;10497423;28;20453;-72
2023/09/05 15:28:43;;;;;;;1999.90;999.90;;;;;;;33.55;44.22;101683.66;10498413;28;20049;-73
2023/09/05 15:33:45;;;;;;;1999.90;999.90;;;;;;;33.51;44.25;101674.31;10497531;28;20048;-72
2023/09/05 15:38:48;;;;;;;1999.90;999.90;;;;;;;32.66;44.78;101678.06;10497518;28;20076;-73
2023/09/05 15:43:50;;;;;;;1999.90;999.90;;;;;;;32.47;48.05;101678.94;10479612;28;20044;-72
2023/09/05 15:48:52;;;;;;;1999.90;999.90;;;;;;;32.42;47.74;101670.63;10497953;28;20051;-72
2023/09/05 15:53:55;;;;;;;1999.90;999.90;;;;;;;31.37;50.74;101672.06;10479517;28;20544;-73
2023/09/05 15:58:57;;;;;;;1999.90;999.90;;;;;;;31.73;50.56;101668.16;10497142;28;20079;-73
2023/09/05 16:04:00;;;;;;;1999.90;999.90;;;;;;;31.99;49.45;101680.00;10479818;28;20049;-73
2023/09/05 16:09:02;;;;;;;1999.90;999.90;;;;;;;31.69;52.28;101680.44;10479827;28;20048;-72
2023/09/05 16:14:05;;;;;;;1999.90;999.90;;;;;;;30.69;55.28;101680.09;10497341;28;20577;-74
2023/09/05 16:19:07;;;;;;;1999.90;999.90;;;;;;;30.26;58.09;101674.81;10478997;28;20090;-73
2023/09/05 16:24:10;;;;;;;1999.90;999.90;;;;;;;30.05;57.88;101673.84;10496615;28;20379;-73
2023/09/05 16:29:13;;;;;;;1999.90;999.90;;;;;;;29.25;60.98;101675.78;10497198;28;20070;-74
2023/09/05 16:34:15;;;;;;;1999.90;999.90;;;;;;;28.77;62.78;101675.41;10480223;28;20041;-73
2023/09/05 16:39:17;;;;;;;1999.90;999.90;;;;;;;28.03;66.42;101670.78;10487023;28;20059;-73
2023/09/05 16:44:20;;;;;;;1999.90;999.90;;;;;;;27.64;67.27;101669.88;10503805;28;20503;-73
2023/09/05 16:49:22;;;;;;;1999.90;999.90;;;;;;;26.93;71.37;101666.41;10504140;28;20052;-73
2023/09/05 16:54:25;;;;;;;1999.90;999.90;;;;;;;26.20;75.15;101666.44;10503341;28;20159;-73
2023/09/05 16:59:27;;;;;;;1999.90;999.90;;;;;;;26.62;74.34;101661.81;10503936;28;20051;-74
2023/09/05 17:04:31;;;;;;;1999.90;999.90;;;;;;;26.10;76.12;101666.63;10503666;28;20059;-73
2023/09/05 17:09:33;;;;;;;1999.90;999.90;;;;;;;25.40;81.83;101667.06;10485047;28;20402;-73
2023/09/05 17:14:36;;;;;;;1999.90;999.90;;;;;;;24.84;85.61;101674.72;10502563;28;20448;-73
2023/09/05 17:19:38;;;;;;;1999.90;999.90;;;;;;;24.58;88.50;101677.44;10502319;28;20135;-73
2023/09/05 17:24:41;;;;;;;1999.90;999.90;;;;;;;24.31;89.83;101681.94;10485121;28;20048;-73
2023/09/05 17:29:44;;;;;;;1999.90;999.90;;;;;;;24.45;89.22;101684.03;10484364;28;20048;-73
2023/09/05 17:34:50;;;;;;;1999.90;999.90;;;;;;;24.06;90.97;101686.28;10502405;28;20044;-72
2023/09/05 17:39:52;;;;;;;1999.90;999.90;;;;;;;23.93;92.34;101684.00;10483888;28;20044;-73
2023/09/05 17:44:54;;;;;;;1999.90;999.90;;;;;;;23.65;94.33;101691.22;10501235;28;20045;-73
2023/09/05 17:49:57;;;;;;;1999.90;999.90;;;;;;;23.75;91.94;101689.31;10483998;28;20135;-72
2023/09/05 17:54:59;;;;;;;1999.90;999.90;;;;;;;23.76;90.84;101685.66;10501577;28;20045;-72
2023/09/05 18:00:02;;;;;;;1999.90;999.90;;;;;;;23.50;92.09;101691.78;10483926;28;20118;-72
2023/09/05 18:05:05;;;;;;;1999.90;999.90;;;;;;;23.34;91.11;101694.25;10483490;28;20094;-72
2023/09/05 18:10:11;;;;;;;1999.90;999.90;;;;;;;23.23;92.17;101695.28;10500916;28;20099;-73
2023/09/05 18:15:14;;;;;;;1999.90;999.90;;;;;;;23.05;92.83;101681.88;10500151;28;20079;-73
2023/09/05 18:20:17;;;;;;;1999.90;999.90;;;;;;;22.55;97.19;101693.72;10499691;28;20131;-72
2023/09/05 18:25:20;;;;;;;1999.90;999.90;;;;;;;22.68;95.75;101705.91;10482641;28;20127;-73
2023/09/05 18:30:22;;;;;;;1999.90;999.90;;;;;;;22.66;92.95;101698.03;10482395;28;20059;-72
2023/09/05 18:35:24;;;;;;;1999.90;999.90;;;;;;;22.56;92.17;101703.44;10500031;28;20048;-73
2023/09/05 18:40:27;;;;;;;1999.90;999.90;;;;;;;22.61;91.72;101708.31;10499890;28;20076;-72
2023/09/05 18:45:29;;;;;;;1999.90;999.90;;;;;;;22.38;93.98;101719.34;10499609;28;20048;-72
2023/09/05 18:50:32;;;;;;;1999.90;999.90;;;;;;;22.31;93.45;101717.38;10499401;28;20110;-72
2023/09/05 18:55:38;;;;;;;1999.90;999.90;;;;;;;21.91;96.83;101715.69;10481543;28;20049;-72
2023/09/05 19:00:40;;;;;;;1999.90;999.90;;;;;;;21.87;96.96;101717.78;10480581;28;20111;-73
2023/09/05 19:05:43;;;;;;;1999.90;999.90;;;;;;;21.97;95.43;101728.44;10498302;28;20052;-73
2023/09/05 19:10:47;;;;;;;1999.90;999.90;;;;;;;21.95;96.08;101739.25;10498762;28;20049;-72
2023/09/05 19:15:52;;;;;;;1999.90;999.90;;;;;;;21.63;98.47;101739.50;10497774;28;20416;-72
2023/09/05 19:20:54;;;;;;;1999.90;999.90;;;;;;;21.97;95.46;101742.63;10481206;28;20045;-73
2023/09/05 19:25:57;;;;;;;1999.90;999.90;;;;;;;21.46;99.91;101740.97;10497792;28;20052;-73
2023/09/05 19:31:00;;;;;;;1999.90;999.90;;;;;;;21.75;95.92;101741.06;10516618;22;20139;-71
2023/09/05 19:36:03;;;;;;;1999.90;999.90;;;;;;;21.84;91.90;101726.09;10538936;28;20047;-71
2023/09/05 19:41:07;;;;;;;1999.90;999.90;;;;;;;21.30;99.17;101736.16;10539353;28;20476;-71
2023/09/05 19:46:09;;;;;;;1999.90;999.90;;;;;;;21.36;97.40;101740.94;10522412;28;20083;-71
2023/09/05 19:51:12;;;;;;;1999.90;999.90;;;;;;;21.46;96.46;101740.97;10539001;28;20071;-71
2023/09/05 19:56:14;;;;;;;1999.90;999.90;;;;;;;21.44;98.38;101745.59;10539027;28;20078;-71
2023/09/05 20:01:16;;;;;;;1999.90;999.90;;;;;;;21.43;98.25;101751.91;10539481;28;20048;-71
2023/09/05 20:06:19;;;;;;;1999.90;999.90;;;;;;;20.99;100.00;101756.66;10537699;28;20497;-71
2023/09/05 20:11:22;;;;;;;1999.90;999.90;;;;;;;20.75;100.00;101752.47;10545549;28;20040;-72
2023/09/05 20:16:24;;;;;;;1999.90;999.90;;;;;;;20.76;100.00;101754.13;10512706;28;20048;-71
2023/09/05 20:21:27;;;;;;;1999.90;999.90;;;;;;;20.76;100.00;101755.00;10547356;28;20040;-71
2023/09/05 20:26:29;;;;;;;1999.90;999.90;;;;;;;20.99;96.85;101746.00;10545417;28;20135;-71
2023/09/05 20:31:32;;;;;;;1999.90;999.90;;;;;;;21.19;92.89;101750.44;10545507;28;20134;-71
2023/09/05 20:36:34;;;;;;;1999.90;999.90;;;;;;;21.56;84.40;101741.88;10545578;28;20048;-72
2023/09/05 20:41:37;;;;;;;1999.90;999.90;;;;;;;21.26;87.88;101738.25;10545831;28;20052;-71
2023/09/05 20:46:42;;;;;;;1999.90;999.90;;;;;;;21.30;85.64;101745.00;10545096;28;20062;-71
2023/09/05 20:51:48;;;;;;;1999.90;999.90;;;;;;;21.96;78.01;101742.78;10546120;28;20076;-71
2023/09/05 20:56:51;;;;;;;1999.90;999.90;;;;;;;21.60;82.19;101750.44;10545424;28;20404;-72
2023/09/05 21:01:53;;;;;;;1999.90;999.90;;;;;;;21.13;85.94;101751.81;10545725;28;20071;-72
2023/09/05 21:06:55;;;;;;;1999.90;999.90;;;;;;;21.12;85.99;101743.97;10545565;28;20101;-72
2023/09/05 21:11:58;;;;;;;1999.90;999.90;;;;;;;21.07;86.82;101752.34;10544830;28;20048;-72
2023/09/05 21:17:01;;;;;;;1999.90;999.90;;;;;;;21.41;81.17;101752.03;10544516;28;20481;-72
2023/09/05 21:22:03;;;;;;;1999.90;999.90;;;;;;;22.22;73.70;101743.88;10543741;28;20484;-70
2023/09/05 21:27:06;;;;;;;1999.90;999.90;;;;;;;21.52;80.64;101748.47;10544224;28;20469;-71
2023/09/05 21:32:09;;;;;;;1999.90;999.90;;;;;;;20.87;87.20;101761.22;10544015;28;20048;-71
2023/09/05 21:37:12;;;;;;;1999.90;999.90;;;;;;;20.70;87.79;101765.31;10544451;28;20048;-71
2023/09/05 21:42:14;;;;;;;1999.90;999.90;;;;;;;21.06;85.81;101769.28;10542371;28;20485;-71
2023/09/05 21:47:16;;;;;;;1999.90;999.90;;;;;;;20.77;85.69;101774.47;10543958;28;20054;-71
2023/09/05 21:52:19;;;;;;;1999.90;999.90;;;;;;;20.77;85.87;101764.66;10543631;28;20079;-71